sensor_id;sensor_type;location;lat;lon;timestamp;temperature;humidity
16040;DHT22;8124;48.634;8.120;2023-06-14T00:01:04;22.80;25.90
16040;DHT22;8124;48.634;8.120;2023-06-14T00:06:08;22.10;25.80
16040;DHT22;8124;48.634;8.120;2023-06-14T00:11:12;22.10;26.00
16040;DHT22;8124;48.634;8.120;2023-06-14T00:16:15;22.20;26.30
16040;DHT22;8124;48.634;8.120;2023-06-14T00:21:19;21.70;26.20
16040;DHT22;8124;48.634;8.120;2023-06-14T00:26:23;21.40;26.30
16040;DHT22;8124;48.634;8.120;2023-06-14T00:31:28;21.50;26.60
16040;DHT22;8124;48.634;8.120;2023-06-14T00:36:31;21.20;26.80
16040;DHT22;8124;48.634;8.120;2023-06-14T00:41:35;20.90;26.90
16040;DHT22;8124;48.634;8.120;2023-06-14T00:46:40;20.70;27.10
16040;DHT22;8124;48.634;8.120;2023-06-14T00:51:43;21.00;27.50
16040;DHT22;8124;48.634;8.120;2023-06-14T00:56:48;21.00;27.60
16040;DHT22;8124;48.634;8.120;2023-06-14T01:01:52;20.70;27.60
16040;DHT22;8124;48.634;8.120;2023-06-14T01:07:00;20.50;27.80
16040;DHT22;8124;48.634;8.120;2023-06-14T01:12:17;20.60;28.10
16040;DHT22;8124;48.634;8.120;2023-06-14T01:17:25;20.40;28.20
16040;DHT22;8124;48.634;8.120;2023-06-14T01:22:29;20.50;28.40
16040;DHT22;8124;48.634;8.120;2023-06-14T01:27:33;20.50;28.50
16040;DHT22;8124;48.634;8.120;2023-06-14T01:32:39;20.60;28.60
16040;DHT22;8124;48.634;8.120;2023-06-14T01:37:43;20.10;28.40
16040;DHT22;8124;48.634;8.120;2023-06-14T01:42:49;19.70;28.50
16040;DHT22;8124;48.634;8.120;2023-06-14T01:47:52;19.50;28.60
16040;DHT22;8124;48.634;8.120;2023-06-14T01:52:55;19.80;28.90
16040;DHT22;8124;48.634;8.120;2023-06-14T01:58:00;19.90;29.00
16040;DHT22;8124;48.634;8.120;2023-06-14T02:03:03;19.50;29.10
16040;DHT22;8124;48.634;8.120;2023-06-14T02:08:06;19.30;29.30
16040;DHT22;8124;48.634;8.120;2023-06-14T02:13:13;19.30;29.40
16040;DHT22;8124;48.634;8.120;2023-06-14T02:18:16;19.20;29.50
16040;DHT22;8124;48.634;8.120;2023-06-14T02:23:19;19.20;29.90
16040;DHT22;8124;48.634;8.120;2023-06-14T02:28:24;19.20;30.00
16040;DHT22;8124;48.634;8.120;2023-06-14T02:33:27;19.20;30.20
16040;DHT22;8124;48.634;8.120;2023-06-14T02:38:30;19.10;30.40
16040;DHT22;8124;48.634;8.120;2023-06-14T02:43:35;18.70;30.40
16040;DHT22;8124;48.634;8.120;2023-06-14T02:48:40;18.50;30.80
16040;DHT22;8124;48.634;8.120;2023-06-14T02:53:43;18.40;31.10
16040;DHT22;8124;48.634;8.120;2023-06-14T02:58:48;18.50;31.40
16040;DHT22;8124;48.634;8.120;2023-06-14T03:03:53;18.50;31.50
16040;DHT22;8124;48.634;8.120;2023-06-14T03:08:56;18.40;31.90
16040;DHT22;8124;48.634;8.120;2023-06-14T03:14:04;18.30;32.20
16040;DHT22;8124;48.634;8.120;2023-06-14T03:19:10;18.10;32.50
16040;DHT22;8124;48.634;8.120;2023-06-14T03:24:13;18.10;32.90
16040;DHT22;8124;48.634;8.120;2023-06-14T03:29:19;18.00;33.20
16040;DHT22;8124;48.634;8.120;2023-06-14T03:34:22;17.50;33.20
16040;DHT22;8124;48.634;8.120;2023-06-14T03:39:26;17.30;33.60
16040;DHT22;8124;48.634;8.120;2023-06-14T03:44:31;17.70;34.30
16040;DHT22;8124;48.634;8.120;2023-06-14T03:49:35;17.60;34.90
16040;DHT22;8124;48.634;8.120;2023-06-14T03:54:39;17.40;35.30
16040;DHT22;8124;48.634;8.120;2023-06-14T04:00:11;17.40;36.10
16040;DHT22;8124;48.634;8.120;2023-06-14T04:05:17;17.30;36.90
16040;DHT22;8124;48.634;8.120;2023-06-14T04:10:23;17.20;37.60
16040;DHT22;8124;48.634;8.120;2023-06-14T04:15:28;17.20;38.60
16040;DHT22;8124;48.634;8.120;2023-06-14T04:20:32;17.00;39.80
16040;DHT22;8124;48.634;8.120;2023-06-14T04:25:38;17.20;40.60
16040;DHT22;8124;48.634;8.120;2023-06-14T04:30:43;17.50;41.00
16040;DHT22;8124;48.634;8.120;2023-06-14T04:35:48;17.70;40.70
16040;DHT22;8124;48.634;8.120;2023-06-14T04:40:58;17.60;41.40
16040;DHT22;8124;48.634;8.120;2023-06-14T04:46:05;17.40;41.70
16040;DHT22;8124;48.634;8.120;2023-06-14T04:51:12;17.30;42.90
16040;DHT22;8124;48.634;8.120;2023-06-14T04:56:17;17.00;44.30
16040;DHT22;8124;48.634;8.120;2023-06-14T05:01:22;16.60;46.90
16040;DHT22;8124;48.634;8.120;2023-06-14T05:06:26;17.20;48.40
16040;DHT22;8124;48.634;8.120;2023-06-14T05:11:30;17.50;52.00
16040;DHT22;8124;48.634;8.120;2023-06-14T05:16:35;17.80;55.00
16040;DHT22;8124;48.634;8.120;2023-06-14T05:21:38;18.20;55.20
16040;DHT22;8124;48.634;8.120;2023-06-14T05:26:44;18.30;56.10
16040;DHT22;8124;48.634;8.120;2023-06-14T05:31:48;18.50;56.70
16040;DHT22;8124;48.634;8.120;2023-06-14T05:36:51;18.70;57.00
16040;DHT22;8124;48.634;8.120;2023-06-14T05:41:54;18.90;57.10
16040;DHT22;8124;48.634;8.120;2023-06-14T05:46:59;18.90;57.90
16040;DHT22;8124;48.634;8.120;2023-06-14T05:52:02;19.20;58.90
16040;DHT22;8124;48.634;8.120;2023-06-14T05:57:05;19.30;58.50
16040;DHT22;8124;48.634;8.120;2023-06-14T06:02:10;19.30;57.90
16040;DHT22;8124;48.634;8.120;2023-06-14T06:07:13;19.40;57.30
16040;DHT22;8124;48.634;8.120;2023-06-14T06:12:16;19.60;57.70
16040;DHT22;8124;48.634;8.120;2023-06-14T06:17:20;19.80;57.80
16040;DHT22;8124;48.634;8.120;2023-06-14T06:22:23;19.70;57.80
16040;DHT22;8124;48.634;8.120;2023-06-14T06:27:26;19.90;58.30
16040;DHT22;8124;48.634;8.120;2023-06-14T06:32:30;20.10;57.80
16040;DHT22;8124;48.634;8.120;2023-06-14T06:37:33;20.10;57.10
16040;DHT22;8124;48.634;8.120;2023-06-14T06:42:36;20.10;56.60
16040;DHT22;8124;48.634;8.120;2023-06-14T06:47:41;20.30;56.20
16040;DHT22;8124;48.634;8.120;2023-06-14T06:52:44;20.80;56.50
16040;DHT22;8124;48.634;8.120;2023-06-14T06:57:48;20.80;56.30
16040;DHT22;8124;48.634;8.120;2023-06-14T07:02:52;21.10;56.10
16040;DHT22;8124;48.634;8.120;2023-06-14T07:07:56;21.40;55.80
16040;DHT22;8124;48.634;8.120;2023-06-14T07:12:59;21.50;55.10
16040;DHT22;8124;48.634;8.120;2023-06-14T07:18:04;21.50;54.30
16040;DHT22;8124;48.634;8.120;2023-06-14T07:23:08;21.60;53.90
16040;DHT22;8124;48.634;8.120;2023-06-14T07:28:12;22.00;54.10
16040;DHT22;8124;48.634;8.120;2023-06-14T07:33:17;21.90;53.50
16040;DHT22;8124;48.634;8.120;2023-06-14T07:38:20;22.20;53.90
16040;DHT22;8124;48.634;8.120;2023-06-14T07:43:23;22.20;53.60
16040;DHT22;8124;48.634;8.120;2023-06-14T07:48:27;22.30;53.70
16040;DHT22;8124;48.634;8.120;2023-06-14T07:53:30;22.30;53.50
16040;DHT22;8124;48.634;8.120;2023-06-14T07:58:33;22.30;53.40
16040;DHT22;8124;48.634;8.120;2023-06-14T08:03:37;22.50;53.20
16040;DHT22;8124;48.634;8.120;2023-06-14T08:08:41;22.60;53.30
16040;DHT22;8124;48.634;8.120;2023-06-14T08:13:43;22.70;53.30
16040;DHT22;8124;48.634;8.120;2023-06-14T08:18:48;22.80;53.30
16040;DHT22;8124;48.634;8.120;2023-06-14T08:23:51;23.20;53.60
16040;DHT22;8124;48.634;8.120;2023-06-14T08:28:55;23.50;53.80
16040;DHT22;8124;48.634;8.120;2023-06-14T08:34:01;23.80;53.70
16040;DHT22;8124;48.634;8.120;2023-06-14T08:39:07;23.10;52.80
16040;DHT22;8124;48.634;8.120;2023-06-14T08:44:11;23.40;53.20
16040;DHT22;8124;48.634;8.120;2023-06-14T08:49:17;23.60;53.50
16040;DHT22;8124;48.634;8.120;2023-06-14T08:54:20;23.30;53.10
16040;DHT22;8124;48.634;8.120;2023-06-14T08:59:24;23.50;53.30
16040;DHT22;8124;48.634;8.120;2023-06-14T09:04:29;23.50;53.30
16040;DHT22;8124;48.634;8.120;2023-06-14T09:09:38;23.50;53.50
16040;DHT22;8124;48.634;8.120;2023-06-14T09:14:46;23.40;53.50
16040;DHT22;8124;48.634;8.120;2023-06-14T09:19:50;23.30;53.40
16040;DHT22;8124;48.634;8.120;2023-06-14T09:24:54;23.60;54.00
16040;DHT22;8124;48.634;8.120;2023-06-14T09:29:57;23.80;54.30
16040;DHT22;8124;48.634;8.120;2023-06-14T09:35:01;23.80;54.30
16040;DHT22;8124;48.634;8.120;2023-06-14T09:40:05;24.00;54.10
16040;DHT22;8124;48.634;8.120;2023-06-14T09:45:10;24.30;53.90
16040;DHT22;8124;48.634;8.120;2023-06-14T09:50:15;24.50;53.40
16040;DHT22;8124;48.634;8.120;2023-06-14T09:55:19;24.70;52.90
16040;DHT22;8124;48.634;8.120;2023-06-14T10:00:22;24.80;52.10
16040;DHT22;8124;48.634;8.120;2023-06-14T10:05:27;25.00;51.80
16040;DHT22;8124;48.634;8.120;2023-06-14T10:10:31;25.00;51.10
16040;DHT22;8124;48.634;8.120;2023-06-14T10:15:41;24.90;50.40
16040;DHT22;8124;48.634;8.120;2023-06-14T10:20:53;25.20;50.20
16040;DHT22;8124;48.634;8.120;2023-06-14T10:25:58;25.10;49.70
16040;DHT22;8124;48.634;8.120;2023-06-14T10:31:05;25.00;49.10
16040;DHT22;8124;48.634;8.120;2023-06-14T10:36:24;25.00;48.70
16040;DHT22;8124;48.634;8.120;2023-06-14T10:41:29;25.00;48.30
16040;DHT22;8124;48.634;8.120;2023-06-14T10:46:33;25.30;48.30
16040;DHT22;8124;48.634;8.120;2023-06-14T10:51:41;25.10;47.80
16040;DHT22;8124;48.634;8.120;2023-06-14T10:56:49;25.20;47.50
16040;DHT22;8124;48.634;8.120;2023-06-14T11:01:58;25.30;47.30
16040;DHT22;8124;48.634;8.120;2023-06-14T11:07:20;25.30;46.80
16040;DHT22;8124;48.634;8.120;2023-06-14T11:12:32;25.40;46.40
16040;DHT22;8124;48.634;8.120;2023-06-14T11:17:38;25.20;45.80
16040;DHT22;8124;48.634;8.120;2023-06-14T11:22:43;25.30;45.50
16040;DHT22;8124;48.634;8.120;2023-06-14T11:27:46;25.30;45.10
16040;DHT22;8124;48.634;8.120;2023-06-14T11:32:50;25.30;44.70
16040;DHT22;8124;48.634;8.120;2023-06-14T11:37:57;25.60;44.70
16040;DHT22;8124;48.634;8.120;2023-06-14T11:43:02;25.50;44.20
16040;DHT22;8124;48.634;8.120;2023-06-14T11:48:06;25.50;43.90
16040;DHT22;8124;48.634;8.120;2023-06-14T11:53:11;25.70;43.80
16040;DHT22;8124;48.634;8.120;2023-06-14T11:58:14;25.60;43.30
16040;DHT22;8124;48.634;8.120;2023-06-14T12:03:17;26.00;43.40
16040;DHT22;8124;48.634;8.120;2023-06-14T12:08:32;25.70;42.80
16040;DHT22;8124;48.634;8.120;2023-06-14T12:13:40;25.70;42.50
16040;DHT22;8124;48.634;8.120;2023-06-14T12:18:46;25.80;42.30
16040;DHT22;8124;48.634;8.120;2023-06-14T12:23:51;26.10;42.40
16040;DHT22;8124;48.634;8.120;2023-06-14T12:28:54;25.90;41.90
16040;DHT22;8124;48.634;8.120;2023-06-14T12:33:56;26.00;41.80
16040;DHT22;8124;48.634;8.120;2023-06-14T12:39:01;25.90;41.50
16040;DHT22;8124;48.634;8.120;2023-06-14T12:44:04;25.90;41.20
16040;DHT22;8124;48.634;8.120;2023-06-14T12:49:08;25.90;40.90
16040;DHT22;8124;48.634;8.120;2023-06-14T12:54:13;25.80;40.60
16040;DHT22;8124;48.634;8.120;2023-06-14T12:59:19;25.90;40.40
16040;DHT22;8124;48.634;8.120;2023-06-14T13:04:22;25.80;40.20
16040;DHT22;8124;48.634;8.120;2023-06-14T13:09:26;26.00;40.80
16040;DHT22;8124;48.634;8.120;2023-06-14T13:14:29;26.00;40.00
16040;DHT22;8124;48.634;8.120;2023-06-14T13:19:32;26.10;39.90
16040;DHT22;8124;48.634;8.120;2023-06-14T13:24:37;26.10;39.70
16040;DHT22;8124;48.634;8.120;2023-06-14T13:29:40;26.00;39.30
16040;DHT22;8124;48.634;8.120;2023-06-14T13:34:43;26.10;39.30
16040;DHT22;8124;48.634;8.120;2023-06-14T13:39:47;26.20;39.20
16040;DHT22;8124;48.634;8.120;2023-06-14T13:44:50;26.20;39.00
16040;DHT22;8124;48.634;8.120;2023-06-14T13:49:54;26.30;38.80
16040;DHT22;8124;48.634;8.120;2023-06-14T13:54:58;26.20;38.60
16040;DHT22;8124;48.634;8.120;2023-06-14T14:00:02;26.10;38.40
16040;DHT22;8124;48.634;8.120;2023-06-14T14:05:15;26.30;38.50
16040;DHT22;8124;48.634;8.120;2023-06-14T14:10:20;26.10;38.10
16040;DHT22;8124;48.634;8.120;2023-06-14T14:15:23;26.10;38.00
16040;DHT22;8124;48.634;8.120;2023-06-14T14:20:30;26.20;37.90
16040;DHT22;8124;48.634;8.120;2023-06-14T14:25:34;26.30;38.00
16040;DHT22;8124;48.634;8.120;2023-06-14T14:30:38;26.10;37.80
16040;DHT22;8124;48.634;8.120;2023-06-14T14:35:42;26.10;37.70
16040;DHT22;8124;48.634;8.120;2023-06-14T14:40:47;26.20;37.80
16040;DHT22;8124;48.634;8.120;2023-06-14T14:45:50;26.20;37.80
16040;DHT22;8124;48.634;8.120;2023-06-14T14:50:54;26.30;37.80
16040;DHT22;8124;48.634;8.120;2023-06-14T14:55:59;26.20;37.70
16040;DHT22;8124;48.634;8.120;2023-06-14T15:01:02;26.30;37.60
16040;DHT22;8124;48.634;8.120;2023-06-14T15:06:05;26.50;37.80
16040;DHT22;8124;48.634;8.120;2023-06-14T15:11:09;26.60;37.80
16040;DHT22;8124;48.634;8.120;2023-06-14T15:16:12;26.30;37.50
16040;DHT22;8124;48.634;8.120;2023-06-14T15:21:16;26.30;37.30
16040;DHT22;8124;48.634;8.120;2023-06-14T15:26:21;26.50;37.40
16040;DHT22;8124;48.634;8.120;2023-06-14T15:31:26;26.50;37.40
16040;DHT22;8124;48.634;8.120;2023-06-14T15:36:30;26.30;37.10
16040;DHT22;8124;48.634;8.120;2023-06-14T15:41:35;26.60;37.30
16040;DHT22;8124;48.634;8.120;2023-06-14T15:46:37;26.70;37.30
16040;DHT22;8124;48.634;8.120;2023-06-14T15:51:40;26.60;37.20
16040;DHT22;8124;48.634;8.120;2023-06-14T15:56:45;26.40;36.80
16040;DHT22;8124;48.634;8.120;2023-06-14T16:01:50;26.20;36.50
16040;DHT22;8124;48.634;8.120;2023-06-14T16:06:53;26.50;36.70
16040;DHT22;8124;48.634;8.120;2023-06-14T16:12:04;26.30;36.40
16040;DHT22;8124;48.634;8.120;2023-06-14T16:17:07;26.40;36.40
16040;DHT22;8124;48.634;8.120;2023-06-14T16:22:11;26.30;36.20
16040;DHT22;8124;48.634;8.120;2023-06-14T16:27:15;26.30;36.10
16040;DHT22;8124;48.634;8.120;2023-06-14T16:32:20;26.40;35.90
16040;DHT22;8124;48.634;8.120;2023-06-14T16:37:23;26.60;36.10
16040;DHT22;8124;48.634;8.120;2023-06-14T16:42:28;26.60;36.00
16040;DHT22;8124;48.634;8.120;2023-06-14T16:47:31;26.60;35.80
16040;DHT22;8124;48.634;8.120;2023-06-14T16:52:33;26.50;35.60
16040;DHT22;8124;48.634;8.120;2023-06-14T16:57:39;26.60;35.70
16040;DHT22;8124;48.634;8.120;2023-06-14T17:02:42;26.60;35.60
16040;DHT22;8124;48.634;8.120;2023-06-14T17:07:47;26.70;35.50
16040;DHT22;8124;48.634;8.120;2023-06-14T17:12:52;26.60;35.40
16040;DHT22;8124;48.634;8.120;2023-06-14T17:17:55;26.80;36.00
16040;DHT22;8124;48.634;8.120;2023-06-14T17:22:57;26.90;35.40
16040;DHT22;8124;48.634;8.120;2023-06-14T17:28:03;26.60;35.00
16040;DHT22;8124;48.634;8.120;2023-06-14T17:33:08;26.70;34.90
16040;DHT22;8124;48.634;8.120;2023-06-14T17:38:15;27.00;35.00
16040;DHT22;8124;48.634;8.120;2023-06-14T17:43:20;26.90;34.80
16040;DHT22;8124;48.634;8.120;2023-06-14T17:48:24;26.70;34.50
16040;DHT22;8124;48.634;8.120;2023-06-14T17:53:28;26.90;34.50
16040;DHT22;8124;48.634;8.120;2023-06-14T17:58:32;26.90;34.40
16040;DHT22;8124;48.634;8.120;2023-06-14T18:03:35;26.90;34.30
16040;DHT22;8124;48.634;8.120;2023-06-14T18:08:38;26.70;33.90
16040;DHT22;8124;48.634;8.120;2023-06-14T18:13:42;26.60;33.80
16040;DHT22;8124;48.634;8.120;2023-06-14T18:18:46;26.60;33.70
16040;DHT22;8124;48.634;8.120;2023-06-14T18:23:50;26.80;33.70
16040;DHT22;8124;48.634;8.120;2023-06-14T18:28:56;26.80;33.60
16040;DHT22;8124;48.634;8.120;2023-06-14T18:34:00;26.90;33.80
16040;DHT22;8124;48.634;8.120;2023-06-14T18:39:03;26.90;33.80
16040;DHT22;8124;48.634;8.120;2023-06-14T18:44:08;26.80;33.70
16040;DHT22;8124;48.634;8.120;2023-06-14T18:49:11;26.90;33.70
16040;DHT22;8124;48.634;8.120;2023-06-14T18:54:14;26.50;33.30
16040;DHT22;8124;48.634;8.120;2023-06-14T18:59:20;26.50;33.30
16040;DHT22;8124;48.634;8.120;2023-06-14T19:04:23;26.10;33.00
16040;DHT22;8124;48.634;8.120;2023-06-14T19:09:26;26.00;33.00
16040;DHT22;8124;48.634;8.120;2023-06-14T19:14:30;25.70;32.90
16040;DHT22;8124;48.634;8.120;2023-06-14T19:19:33;25.60;32.90
16040;DHT22;8124;48.634;8.120;2023-06-14T19:24:37;25.40;32.90
16040;DHT22;8124;48.634;8.120;2023-06-14T19:29:41;25.20;32.90
16040;DHT22;8124;48.634;8.120;2023-06-14T19:34:44;24.80;32.70
16040;DHT22;8124;48.634;8.120;2023-06-14T19:39:47;24.70;32.90
16040;DHT22;8124;48.634;8.120;2023-06-14T19:44:51;24.40;32.90
16040;DHT22;8124;48.634;8.120;2023-06-14T19:49:54;24.20;33.00
16040;DHT22;8124;48.634;8.120;2023-06-14T19:54:59;24.10;33.10
16040;DHT22;8124;48.634;8.120;2023-06-14T20:00:03;23.80;33.20
16040;DHT22;8124;48.634;8.120;2023-06-14T20:05:16;23.90;33.50
16040;DHT22;8124;48.634;8.120;2023-06-14T20:10:20;24.30;34.00
16040;DHT22;8124;48.634;8.120;2023-06-14T20:15:25;24.30;34.20
16040;DHT22;8124;48.634;8.120;2023-06-14T20:20:28;24.30;34.40
16040;DHT22;8124;48.634;8.120;2023-06-14T20:25:31;24.10;34.30
16040;DHT22;8124;48.634;8.120;2023-06-14T20:30:36;23.90;34.40
16040;DHT22;8124;48.634;8.120;2023-06-14T20:35:40;23.80;34.60
16040;DHT22;8124;48.634;8.120;2023-06-14T20:40:46;23.60;34.70
16040;DHT22;8124;48.634;8.120;2023-06-14T20:45:50;23.30;34.70
16040;DHT22;8124;48.634;8.120;2023-06-14T20:50:56;23.20;34.90
16040;DHT22;8124;48.634;8.120;2023-06-14T20:55:59;23.30;35.10
16040;DHT22;8124;48.634;8.120;2023-06-14T21:01:04;22.70;35.30
16040;DHT22;8124;48.634;8.120;2023-06-14T21:06:07;22.60;35.50
16040;DHT22;8124;48.634;8.120;2023-06-14T21:11:11;22.40;35.80
16040;DHT22;8124;48.634;8.120;2023-06-14T21:16:15;22.00;36.10
16040;DHT22;8124;48.634;8.120;2023-06-14T21:21:18;22.60;36.70
16040;DHT22;8124;48.634;8.120;2023-06-14T21:26:21;22.60;36.90
16040;DHT22;8124;48.634;8.120;2023-06-14T21:31:25;22.60;37.20
16040;DHT22;8124;48.634;8.120;2023-06-14T21:36:28;22.80;37.60
16040;DHT22;8124;48.634;8.120;2023-06-14T21:41:33;22.40;37.70
16040;DHT22;8124;48.634;8.120;2023-06-14T21:46:40;22.70;38.20
16040;DHT22;8124;48.634;8.120;2023-06-14T21:51:43;22.70;38.40
16040;DHT22;8124;48.634;8.120;2023-06-14T21:56:47;22.70;38.80
16040;DHT22;8124;48.634;8.120;2023-06-14T22:01:51;22.50;38.80
16040;DHT22;8124;48.634;8.120;2023-06-14T22:06:54;22.20;38.90
16040;DHT22;8124;48.634;8.120;2023-06-14T22:11:58;22.40;39.20
16040;DHT22;8124;48.634;8.120;2023-06-14T22:17:03;22.20;39.30
16040;DHT22;8124;48.634;8.120;2023-06-14T22:22:07;22.60;39.60
16040;DHT22;8124;48.634;8.120;2023-06-14T22:27:10;22.00;39.40
16040;DHT22;8124;48.634;8.120;2023-06-14T22:32:16;22.10;39.70
16040;DHT22;8124;48.634;8.120;2023-06-14T22:37:20;22.10;40.00
16040;DHT22;8124;48.634;8.120;2023-06-14T22:42:25;22.10;40.30
16040;DHT22;8124;48.634;8.120;2023-06-14T22:47:29;22.30;40.60
16040;DHT22;8124;48.634;8.120;2023-06-14T22:52:32;21.90;40.50
16040;DHT22;8124;48.634;8.120;2023-06-14T22:57:36;22.00;40.80
16040;DHT22;8124;48.634;8.120;2023-06-14T23:02:41;22.00;41.20
16040;DHT22;8124;48.634;8.120;2023-06-14T23:07:44;21.80;41.30
16040;DHT22;8124;48.634;8.120;2023-06-14T23:12:48;21.70;41.90
16040;DHT22;8124;48.634;8.120;2023-06-14T23:17:52;21.50;42.10
16040;DHT22;8124;48.634;8.120;2023-06-14T23:22:55;21.40;42.20
16040;DHT22;8124;48.634;8.120;2023-06-14T23:27:59;21.50;43.30
16040;DHT22;8124;48.634;8.120;2023-06-14T23:33:06;20.90;42.70
16040;DHT22;8124;48.634;8.120;2023-06-14T23:38:10;21.10;43.30
16040;DHT22;8124;48.634;8.120;2023-06-14T23:43:14;21.10;44.00
16040;DHT22;8124;48.634;8.120;2023-06-14T23:48:22;21.10;44.20
16040;DHT22;8124;48.634;8.120;2023-06-14T23:53:27;21.10;44.70
16040;DHT22;8124;48.634;8.120;2023-06-14T23:58:30;21.20;45.00
